createdAt,value
2022-08-07T00:00:20.586Z,99734.81
2022-08-07T00:02:50.690Z,99733.19
2022-08-07T00:05:23.876Z,99745.94
2022-08-07T00:07:59.610Z,99740.66
2022-08-07T00:10:32.139Z,99739.72
2022-08-07T00:13:23.580Z,99741.69
2022-08-07T00:15:52.572Z,99736.63
2022-08-07T00:18:25.314Z,99740.72
2022-08-07T00:21:01.429Z,99733.13
2022-08-07T00:23:34.268Z,99733.06
2022-08-07T00:26:18.777Z,99724.56
2022-08-07T00:29:18.513Z,99724.81
2022-08-07T00:31:53.677Z,99735.94
2022-08-07T00:34:30.481Z,99731.47
2022-08-07T00:37:05.003Z,99737.88
2022-08-07T00:39:44.896Z,99735.34
2022-08-07T00:42:12.834Z,99739.97
2022-08-07T00:44:44.097Z,99736.22
2022-08-07T00:47:16.096Z,99729.88
2022-08-07T00:50:21.216Z,99726.81
2022-08-07T00:52:58.937Z,99725.88
2022-08-07T00:56:02.383Z,99727.56
2022-08-07T00:58:19.273Z,99724.47
2022-08-07T01:00:54.307Z,99714.03
2022-08-07T01:03:55.830Z,99719.97
2022-08-07T01:06:18.958Z,99721.84
2022-08-07T01:08:53.379Z,99717.00
2022-08-07T01:12:23.335Z,99717.56
2022-08-07T01:14:11.026Z,99722.69
2022-08-07T01:16:42.935Z,99719.37
2022-08-07T01:19:19.251Z,99731.69
2022-08-07T01:21:53.307Z,99723.59
2022-08-07T01:24:22.568Z,99719.69
2022-08-07T01:26:51.937Z,99722.31
2022-08-07T01:29:31.519Z,99726.28
2022-08-07T01:32:12.334Z,99718.69
2022-08-07T01:34:47.286Z,99719.13
2022-08-07T01:37:20.845Z,99715.84
2022-08-07T01:39:54.209Z,99713.88
2022-08-07T01:42:57.540Z,99721.03
2022-08-07T01:45:37.142Z,99716.84
2022-08-07T01:48:17.869Z,99725.00
2022-08-07T01:51:39.261Z,99720.84
2022-08-07T01:54:11.803Z,99724.19
2022-08-07T01:56:58.909Z,99717.44
2022-08-07T01:59:55.494Z,99722.66
2022-08-07T02:03:18.232Z,99715.81
2022-08-07T02:05:43.263Z,99725.50
2022-08-07T02:08:23.843Z,99721.81
2022-08-07T02:10:57.945Z,99728.56
2022-08-07T02:13:56.766Z,99723.97
2022-08-07T02:16:33.327Z,99725.00
2022-08-07T02:20:05.551Z,99732.03
2022-08-07T02:22:00.861Z,99720.13
2022-08-07T02:24:30.586Z,99728.06
2022-08-07T02:27:02.654Z,99737.41
2022-08-07T02:29:32.208Z,99743.69
2022-08-07T02:32:04.317Z,99743.03
2022-08-07T02:34:32.659Z,99730.25
2022-08-07T02:37:08.894Z,99732.28
2022-08-07T02:40:02.247Z,99738.44
2022-08-07T02:42:32.709Z,99739.59
2022-08-07T02:45:07.292Z,99743.53
2022-08-07T02:47:59.177Z,99747.69
2022-08-07T02:50:34.219Z,99751.13
2022-08-07T02:53:07.679Z,99744.56
2022-08-07T02:56:03.662Z,99744.16
2022-08-07T02:58:35.491Z,99742.22
2022-08-07T03:01:19.134Z,99746.09
2022-08-07T03:04:03.525Z,99745.56
2022-08-07T03:06:37.134Z,99747.50
2022-08-07T03:09:43.527Z,99746.81
2022-08-07T03:12:08.078Z,99735.34
2022-08-07T03:14:51.987Z,99744.34
2022-08-07T03:17:25.377Z,99744.38
2022-08-07T03:19:54.689Z,99732.69
2022-08-07T03:22:29.527Z,99738.16
2022-08-07T03:25:00.262Z,99736.31
2022-08-07T03:28:09.382Z,99739.06
2022-08-07T03:30:24.317Z,99743.09
2022-08-07T03:32:58.256Z,99743.00
2022-08-07T03:35:38.154Z,99737.00
2022-08-07T03:38:21.438Z,99740.50
2022-08-07T03:41:02.338Z,99733.44
2022-08-07T03:43:36.041Z,99733.19
2022-08-07T03:46:10.387Z,99740.97
2022-08-07T03:49:03.020Z,99745.91
2022-08-07T03:51:47.168Z,99756.38
2022-08-07T03:54:35.507Z,99756.03
2022-08-07T03:57:07.883Z,99758.53
2022-08-07T03:59:36.562Z,99762.69
2022-08-07T04:02:18.353Z,99759.16
2022-08-07T04:04:49.834Z,99761.00
2022-08-07T04:07:19.029Z,99769.16
2022-08-07T04:09:53.638Z,99775.94
2022-08-07T04:12:27.030Z,99777.63
2022-08-07T04:14:57.958Z,99779.03
2022-08-07T04:18:11.234Z,99781.31
2022-08-07T04:20:16.749Z,99784.38
2022-08-07T04:23:01.894Z,99787.63
2022-08-07T04:25:39.409Z,99787.50
2022-08-07T04:28:10.423Z,99800.81
2022-08-07T04:30:55.491Z,99802.97
2022-08-07T04:33:26.379Z,99796.44
2022-08-07T04:35:59.544Z,99791.16
2022-08-07T04:38:29.528Z,99794.53
2022-08-07T04:40:57.493Z,99795.25
2022-08-07T04:44:12.023Z,99801.59
2022-08-07T04:46:34.626Z,99803.28
2022-08-07T04:49:25.628Z,99800.28
2022-08-07T04:52:03.595Z,99804.34
2022-08-07T04:54:43.656Z,99806.25
2022-08-07T04:58:16.753Z,99806.91
2022-08-07T05:00:30.100Z,99800.41
2022-08-07T05:03:17.010Z,99807.19
2022-08-07T05:05:58.861Z,99799.91
2022-08-07T05:09:01.230Z,99802.37
2022-08-07T05:11:57.203Z,99798.06
2022-08-07T05:14:53.824Z,99798.69
2022-08-07T05:17:52.179Z,99802.84
2022-08-07T05:20:25.636Z,99802.72
2022-08-07T05:23:00.178Z,99807.88
2022-08-07T05:26:10.182Z,99811.16
2022-08-07T05:28:26.608Z,99817.03
2022-08-07T05:30:58.672Z,99825.09
2022-08-07T05:33:28.710Z,99821.81
2022-08-07T05:36:00.590Z,99823.13
2022-08-07T05:39:00.908Z,99819.47
2022-08-07T05:41:21.697Z,99828.34
2022-08-07T05:44:08.283Z,99827.03
2022-08-07T05:46:41.163Z,99831.19
2022-08-07T05:49:15.006Z,99825.59
2022-08-07T05:51:51.005Z,99827.72
2022-08-07T05:54:30.717Z,99833.19
2022-08-07T05:57:04.350Z,99829.62
2022-08-07T05:59:38.964Z,99831.53
2022-08-07T06:02:28.865Z,99825.66
2022-08-07T06:05:05.900Z,99831.97
2022-08-07T06:08:09.275Z,99830.97
2022-08-07T06:10:28.922Z,99838.09
2022-08-07T06:13:02.073Z,99831.78
2022-08-07T06:15:42.152Z,99837.69
2022-08-07T06:18:14.012Z,99843.81
2022-08-07T06:20:49.749Z,99847.59
2022-08-07T06:24:37.008Z,99850.31
2022-08-07T06:26:27.585Z,99844.00
2022-08-07T06:29:01.119Z,99842.09
2022-08-07T06:31:46.743Z,99852.88
2022-08-07T06:34:19.456Z,99853.09
2022-08-07T06:36:52.194Z,99849.06
2022-08-07T06:40:18.023Z,99851.97
2022-08-07T06:42:19.267Z,99854.28
2022-08-07T06:44:54.321Z,99854.69
2022-08-07T06:47:25.084Z,99860.62
2022-08-07T06:49:58.973Z,99871.81
2022-08-07T06:52:35.610Z,99869.50
2022-08-07T06:55:34.298Z,99869.69
2022-08-07T06:58:10.194Z,99868.84
2022-08-07T07:00:42.471Z,99862.47
2022-08-07T07:03:26.413Z,99863.13
2022-08-07T07:06:10.984Z,99859.97
2022-08-07T07:08:39.833Z,99855.53
2022-08-07T07:12:08.894Z,99852.31
2022-08-07T07:14:09.834Z,99857.16
2022-08-07T07:16:49.819Z,99854.00
2022-08-07T07:19:56.374Z,99863.84
2022-08-07T07:22:36.138Z,99861.94
2022-08-07T07:26:30.844Z,99862.72
2022-08-07T07:28:29.830Z,99865.03
2022-08-07T07:31:17.119Z,99859.50
2022-08-07T07:33:56.933Z,99862.22
2022-08-07T07:36:29.631Z,99861.09
2022-08-07T07:39:04.601Z,99861.56
2022-08-07T07:41:50.675Z,99851.81
2022-08-07T07:44:25.780Z,99856.47
2022-08-07T07:47:04.398Z,99853.56
2022-08-07T07:50:33.277Z,99852.72
2022-08-07T07:52:32.673Z,99852.34
2022-08-07T07:55:01.217Z,99856.97
2022-08-07T07:57:43.748Z,99853.38
2022-08-07T08:00:29.723Z,99856.47
2022-08-07T08:03:08.011Z,99855.34
2022-08-07T08:05:50.807Z,99865.59
2022-08-07T08:08:34.372Z,99855.13
2022-08-07T08:11:13.535Z,99858.63
2022-08-07T08:13:53.802Z,99864.56
2022-08-07T08:16:29.875Z,99859.50
2022-08-07T08:19:09.957Z,99852.94
2022-08-07T08:22:10.622Z,99859.91
2022-08-07T08:25:24.951Z,99861.81
2022-08-07T08:27:57.154Z,99862.34
2022-08-07T08:30:29.904Z,99861.59
2022-08-07T08:33:03.259Z,99859.06
2022-08-07T08:35:39.286Z,99849.84
2022-08-07T08:38:21.474Z,99863.56
2022-08-07T08:41:02.984Z,99859.97
2022-08-07T08:43:42.443Z,99865.84
2022-08-07T08:46:49.186Z,99867.94
2022-08-07T08:49:33.548Z,99858.84
2022-08-07T08:52:32.355Z,99864.19
2022-08-07T08:55:53.829Z,99869.47
2022-08-07T08:58:32.024Z,99857.97
2022-08-07T09:01:24.259Z,99860.31
2022-08-07T09:04:33.134Z,99858.97
2022-08-07T09:07:25.354Z,99858.41
2022-08-07T09:10:03.161Z,99859.03
2022-08-07T09:12:53.348Z,99862.34
2022-08-07T09:16:24.389Z,99856.75
2022-08-07T09:19:00.508Z,99870.59
2022-08-07T09:22:10.294Z,99858.66
2022-08-07T09:24:56.071Z,99860.72
2022-08-07T09:27:54.930Z,99862.44
2022-08-07T09:31:04.169Z,99853.72
2022-08-07T09:34:15.931Z,99858.63
2022-08-07T09:36:46.832Z,99845.81
2022-08-07T09:39:55.594Z,99845.34
2022-08-07T09:42:24.871Z,99845.97
2022-08-07T09:47:26.194Z,99845.25
2022-08-07T09:48:20.378Z,99842.13
2022-08-07T09:51:26.089Z,99843.44
2022-08-07T09:54:03.409Z,99839.94
2022-08-07T09:56:50.507Z,99834.03
2022-08-07T10:00:00.816Z,99836.94
2022-08-07T10:02:57.197Z,99830.81
2022-08-07T10:06:00.108Z,99830.72
2022-08-07T10:08:52.607Z,99830.56
2022-08-07T10:12:03.336Z,99818.09
2022-08-07T10:15:24.131Z,99818.59
2022-08-07T10:18:18.218Z,99815.47
2022-08-07T10:21:19.785Z,99816.19
2022-08-07T10:24:27.099Z,99812.47
2022-08-07T10:27:25.574Z,99810.94
2022-08-07T10:30:12.415Z,99806.12
2022-08-07T10:33:04.785Z,99797.97
2022-08-07T10:36:14.618Z,99798.19
2022-08-07T10:38:53.228Z,99799.16
2022-08-07T10:41:51.697Z,99798.56
2022-08-07T10:44:54.583Z,99799.88
2022-08-07T10:47:52.949Z,99785.88
2022-08-07T10:50:25.657Z,99794.66
2022-08-07T10:53:09.221Z,99787.41
2022-08-07T10:55:53.530Z,99788.84
2022-08-07T10:58:47.666Z,99782.97
2022-08-07T11:01:52.038Z,99778.06
2022-08-07T11:04:34.607Z,99775.25
2022-08-07T11:07:58.319Z,99778.66
2022-08-07T11:10:52.309Z,99774.69
2022-08-07T11:14:46.135Z,99765.66
2022-08-07T11:16:29.963Z,99765.28
2022-08-07T11:19:06.917Z,99768.84
2022-08-07T11:21:44.818Z,99765.03
2022-08-07T11:24:28.912Z,99760.94
2022-08-07T11:27:20.976Z,99757.13
2022-08-07T11:30:19.045Z,99749.09
2022-08-07T11:33:07.936Z,99743.34
2022-08-07T11:35:59.707Z,99746.75
2022-08-07T11:38:50.676Z,99747.97
2022-08-07T11:42:00.011Z,99752.75
2022-08-07T11:44:25.208Z,99740.16
2022-08-07T11:46:59.120Z,99739.34
2022-08-07T11:50:30.162Z,99733.44
2022-08-07T11:53:05.181Z,99733.22
2022-08-07T11:56:09.114Z,99728.88
2022-08-07T11:58:38.257Z,99727.56
2022-08-07T12:01:59.963Z,99721.59
2022-08-07T12:04:46.348Z,99720.84
2022-08-07T12:07:27.311Z,99710.22
2022-08-07T12:10:05.907Z,99710.75
2022-08-07T12:12:45.711Z,99710.75
2022-08-07T12:15:35.619Z,99708.47
2022-08-07T12:18:16.121Z,99701.72
2022-08-07T12:22:35.896Z,99699.97
2022-08-07T12:25:08.043Z,99697.84
2022-08-07T12:28:08.811Z,99695.87
2022-08-07T12:30:32.571Z,99689.16
2022-08-07T12:33:18.711Z,99690.75
2022-08-07T12:35:58.022Z,99683.59
2022-08-07T12:38:29.618Z,99682.00
2022-08-07T12:41:09.868Z,99683.28
2022-08-07T12:44:02.194Z,99683.94
2022-08-07T12:46:36.817Z,99672.47
2022-08-07T12:49:39.431Z,99677.81
2022-08-07T12:52:18.185Z,99681.31
2022-08-07T12:55:05.152Z,99676.03
2022-08-07T12:57:59.374Z,99675.81
2022-08-07T13:00:31.226Z,99672.94
2022-08-07T13:03:56.140Z,99670.53
2022-08-07T13:07:00.036Z,99666.63
2022-08-07T13:10:19.994Z,99679.88
2022-08-07T13:13:48.097Z,99664.81
2022-08-07T13:16:12.171Z,99665.66
2022-08-07T13:18:51.422Z,99659.06
2022-08-07T13:21:50.393Z,99662.28
2022-08-07T13:24:30.436Z,99659.97
2022-08-07T13:27:06.579Z,99665.13
2022-08-07T13:29:42.460Z,99660.81
2022-08-07T13:32:39.905Z,99650.59
2022-08-07T13:35:21.464Z,99656.94
2022-08-07T13:37:58.939Z,99652.84
2022-08-07T13:40:35.061Z,99649.63
2022-08-07T13:43:15.241Z,99651.16
2022-08-07T13:46:11.859Z,99639.38
2022-08-07T13:48:35.053Z,99640.41
2022-08-07T13:51:27.675Z,99627.16
2022-08-07T13:54:03.288Z,99626.56
2022-08-07T13:56:41.249Z,99625.84
2022-08-07T13:59:25.751Z,99620.06
2022-08-07T14:02:12.926Z,99612.81
2022-08-07T14:04:49.442Z,99618.25
2022-08-07T14:07:23.634Z,99621.75
2022-08-07T14:10:17.347Z,99619.72
2022-08-07T14:12:54.880Z,99618.81
2022-08-07T14:15:43.509Z,99610.72
2022-08-07T14:18:28.337Z,99616.78
2022-08-07T14:22:02.553Z,99614.94
2022-08-07T14:24:10.800Z,99611.50
2022-08-07T14:26:50.491Z,99611.31
2022-08-07T14:30:05.897Z,99608.91
2022-08-07T14:32:15.182Z,99606.31
2022-08-07T14:34:46.411Z,99602.13
2022-08-07T14:37:18.657Z,99595.97
2022-08-07T14:40:18.044Z,99593.19
2022-08-07T14:43:00.955Z,99605.75
2022-08-07T14:48:27.640Z,99590.00
2022-08-07T14:51:00.079Z,99595.44
2022-08-07T14:54:05.839Z,99588.25
2022-08-07T14:56:29.819Z,99576.81
2022-08-07T14:59:13.661Z,99574.94
2022-08-07T15:01:53.462Z,99583.72
2022-08-07T15:04:26.293Z,99582.13
2022-08-07T15:06:57.448Z,99576.06
2022-08-07T15:09:47.125Z,99574.56
2022-08-07T15:12:26.165Z,99575.50
2022-08-07T15:15:09.255Z,99568.66
2022-08-07T15:17:58.909Z,99573.16
2022-08-07T15:20:54.932Z,99561.44
2022-08-07T15:25:02.790Z,99563.22
2022-08-07T15:26:22.504Z,99567.50
2022-08-07T15:30:03.681Z,99561.22
2022-08-07T15:32:01.696Z,99557.41
2022-08-07T15:34:50.206Z,99557.41
2022-08-07T15:37:27.819Z,99559.19
2022-08-07T15:39:59.002Z,99559.63
2022-08-07T15:45:55.683Z,99548.97
2022-08-07T15:48:30.558Z,99556.06
2022-08-07T15:51:08.609Z,99548.12
2022-08-07T15:53:52.719Z,99550.47
2022-08-07T15:56:34.936Z,99553.75
2022-08-07T15:59:16.270Z,99550.09
2022-08-07T16:02:02.258Z,99542.53
2022-08-07T16:04:32.412Z,99546.25
2022-08-07T16:07:04.607Z,99540.84
2022-08-07T16:09:41.881Z,99546.44
2022-08-07T16:12:28.771Z,99549.47
2022-08-07T16:15:06.930Z,99546.66
2022-08-07T16:18:00.749Z,99543.28
2022-08-07T16:22:01.606Z,99554.28
2022-08-07T16:24:33.718Z,99552.94
2022-08-07T16:27:18.223Z,99560.13
2022-08-07T16:30:30.533Z,99556.50
2022-08-07T16:32:59.762Z,99561.03
2022-08-07T16:35:52.324Z,99556.66
2022-08-07T16:39:01.048Z,99557.75
2022-08-07T16:42:00.519Z,99557.00
2022-08-07T16:45:19.298Z,99556.69
2022-08-07T16:48:28.427Z,99552.28
2022-08-07T16:51:54.076Z,99550.06
2022-08-07T16:54:55.487Z,99552.94
2022-08-07T16:58:02.034Z,99558.37
2022-08-07T17:00:41.122Z,99557.53
2022-08-07T17:03:17.132Z,99558.59
2022-08-07T17:06:29.333Z,99553.06
2022-08-07T17:09:14.017Z,99560.56
2022-08-07T17:12:04.815Z,99556.91
2022-08-07T17:14:36.511Z,99556.12
2022-08-07T17:17:09.994Z,99560.47
2022-08-07T17:20:02.332Z,99562.28
2022-08-07T17:22:46.241Z,99565.13
2022-08-07T17:25:20.094Z,99556.16
2022-08-07T17:28:14.162Z,99557.31
2022-08-07T17:30:59.118Z,99559.09
2022-08-07T17:34:08.989Z,99557.38
2022-08-07T17:36:26.150Z,99555.19
2022-08-07T17:38:59.807Z,99557.97
2022-08-07T17:42:04.732Z,99565.81
2022-08-07T17:44:55.808Z,99563.69
2022-08-07T17:47:42.447Z,99572.50
2022-08-07T17:50:31.123Z,99570.56
2022-08-07T17:53:09.100Z,99566.91
2022-08-07T17:56:26.139Z,99575.78
2022-08-07T17:58:56.882Z,99573.25
2022-08-07T18:01:36.831Z,99574.37
2022-08-07T18:04:34.517Z,99587.97
2022-08-07T18:07:22.514Z,99584.09
2022-08-07T18:10:31.937Z,99592.62
2022-08-07T18:13:00.675Z,99598.69
2022-08-07T18:15:32.878Z,99607.25
2022-08-07T18:18:46.177Z,99611.63
2022-08-07T18:21:41.365Z,99611.81
2022-08-07T18:24:33.759Z,99619.25
2022-08-07T18:27:40.262Z,99615.91
2022-08-07T18:30:30.833Z,99617.56
2022-08-07T18:33:16.638Z,99624.09
2022-08-07T18:36:03.454Z,99623.00
2022-08-07T18:38:59.651Z,99629.34
2022-08-07T18:41:45.475Z,99632.91
2022-08-07T18:45:43.006Z,99631.50
2022-08-07T18:50:05.355Z,99635.03
2022-08-07T18:52:34.997Z,99634.53
2022-08-07T18:54:27.854Z,99633.50
2022-08-07T18:57:58.725Z,99645.22
2022-08-07T19:00:55.126Z,99641.28
2022-08-07T19:03:38.845Z,99640.41
2022-08-07T19:06:33.722Z,99649.41
2022-08-07T19:09:57.717Z,99648.50
2022-08-07T19:12:27.126Z,99656.19
2022-08-07T19:16:05.929Z,99664.88
2022-08-07T19:18:34.449Z,99664.41
2022-08-07T19:21:14.546Z,99688.63
2022-08-07T19:24:00.367Z,99704.34
2022-08-07T19:27:09.509Z,99707.25
2022-08-07T19:31:00.764Z,99703.87
2022-08-07T19:32:39.466Z,99698.06
2022-08-07T19:35:33.032Z,99715.78
2022-08-07T19:38:16.664Z,99714.09
2022-08-07T19:40:49.704Z,99719.28
2022-08-07T19:43:49.000Z,99722.84
2022-08-07T19:46:14.541Z,99716.72
2022-08-07T19:48:53.648Z,99728.53
2022-08-07T19:51:52.812Z,99726.00
2022-08-07T19:54:33.484Z,99732.34
2022-08-07T19:58:03.205Z,99739.19
2022-08-07T20:00:08.806Z,99736.91
2022-08-07T20:02:52.179Z,99738.72
2022-08-07T20:05:30.413Z,99733.06
2022-08-07T20:08:25.273Z,99736.56
2022-08-07T20:11:03.716Z,99732.13
2022-08-07T20:13:42.595Z,99737.66
2022-08-07T20:16:15.850Z,99733.34
2022-08-07T20:19:02.287Z,99740.88
2022-08-07T20:21:42.160Z,99734.16
2022-08-07T20:24:28.666Z,99740.97
2022-08-07T20:27:03.079Z,99750.63
2022-08-07T20:29:48.274Z,99748.13
2022-08-07T20:32:25.446Z,99746.78
2022-08-07T20:34:54.812Z,99753.53
2022-08-07T20:37:29.480Z,99750.56
2022-08-07T20:40:03.913Z,99749.09
2022-08-07T20:42:33.657Z,99757.37
2022-08-07T20:45:04.359Z,99757.41
2022-08-07T20:47:56.349Z,99753.69
2022-08-07T20:50:28.974Z,99753.91
2022-08-07T20:52:58.816Z,99739.78
2022-08-07T20:55:32.186Z,99737.59
2022-08-07T20:58:12.048Z,99739.63
2022-08-07T21:00:53.961Z,99741.78
2022-08-07T21:03:23.038Z,99738.69
2022-08-07T21:05:57.066Z,99737.22
2022-08-07T21:08:38.068Z,99753.03
2022-08-07T21:11:14.601Z,99760.72
2022-08-07T21:14:16.881Z,99756.41
2022-08-07T21:16:55.874Z,99755.91
2022-08-07T21:19:32.378Z,99757.34
2022-08-07T21:22:19.361Z,99767.19
2022-08-07T21:25:12.343Z,99767.75
2022-08-07T21:27:53.737Z,99775.91
2022-08-07T21:30:30.142Z,99769.44
2022-08-07T21:33:09.317Z,99775.88
2022-08-07T21:36:05.202Z,99772.13
2022-08-07T21:38:49.928Z,99768.16
2022-08-07T21:41:37.804Z,99768.56
2022-08-07T21:44:39.870Z,99777.19
2022-08-07T21:47:16.259Z,99783.03
2022-08-07T21:50:05.341Z,99781.94
2022-08-07T21:52:54.580Z,99777.97
2022-08-07T21:55:31.037Z,99781.41
2022-08-07T21:58:06.785Z,99790.19
2022-08-07T22:00:38.085Z,99788.78
2022-08-07T22:03:30.807Z,99784.59
2022-08-07T22:06:06.421Z,99795.75
2022-08-07T22:08:39.716Z,99791.91
2022-08-07T22:11:11.240Z,99794.38
2022-08-07T22:13:50.215Z,99800.09
2022-08-07T22:16:39.738Z,99796.25
2022-08-07T22:19:23.598Z,99789.69
2022-08-07T22:22:17.786Z,99795.37
2022-08-07T22:24:54.655Z,99791.84
2022-08-07T22:28:08.320Z,99790.31
2022-08-07T22:30:52.948Z,99790.72
2022-08-07T22:33:53.680Z,99792.94
2022-08-07T22:36:59.656Z,99794.38
2022-08-07T22:39:52.530Z,99796.44
2022-08-07T22:42:25.580Z,99806.38
2022-08-07T22:46:04.566Z,99795.66
2022-08-07T22:49:00.460Z,99797.81
2022-08-07T22:51:49.242Z,99801.03
2022-08-07T22:54:48.965Z,99808.34
2022-08-07T22:57:48.588Z,99811.28
2022-08-07T23:00:28.184Z,99802.56
2022-08-07T23:03:18.381Z,99813.25
2022-08-07T23:06:37.629Z,99828.31
2022-08-07T23:10:04.645Z,99830.91
2022-08-07T23:12:34.027Z,99834.97
2022-08-07T23:16:04.547Z,99836.22
2022-08-07T23:18:14.014Z,99826.97
2022-08-07T23:21:10.560Z,99827.97
2022-08-07T23:24:11.442Z,99822.16
2022-08-07T23:27:33.910Z,99828.59
2022-08-07T23:30:35.756Z,99828.44
2022-08-07T23:34:21.777Z,99823.97
2022-08-07T23:36:28.979Z,99829.09
2022-08-07T23:39:14.452Z,99838.12
2022-08-07T23:42:04.672Z,99842.44
2022-08-07T23:44:51.463Z,99840.81
2022-08-07T23:47:46.579Z,99842.09
2022-08-07T23:50:41.869Z,99828.22
2022-08-07T23:53:21.321Z,99830.81
2022-08-07T23:56:12.118Z,99823.00
2022-08-07T23:59:10.330Z,99824.09
